createdAt,value
2019-01-31T00:00:46.607Z,28.97
2019-01-31T00:06:14.268Z,35.90
2019-01-31T00:11:38.673Z,32.70
2019-01-31T00:23:34.512Z,30.50
2019-01-31T00:29:17.150Z,27.60
2019-01-31T00:35:02.694Z,26.73
2019-01-31T00:40:36.033Z,37.13
2019-01-31T00:46:11.146Z,33.00
2019-01-31T00:51:30.421Z,36.20
2019-01-31T00:57:02.864Z,38.20
2019-01-31T01:02:36.934Z,39.03
2019-01-31T01:08:20.329Z,36.20
2019-01-31T01:14:06.558Z,38.37
2019-01-31T01:20:08.340Z,31.50
2019-01-31T01:26:12.869Z,36.43
2019-01-31T01:31:47.624Z,39.63
2019-01-31T01:37:31.844Z,36.93
2019-01-31T01:43:16.005Z,39.53
2019-01-31T01:48:30.754Z,38.37
2019-01-31T01:54:07.962Z,34.90
2019-01-31T01:59:45.653Z,35.23
2019-01-31T02:05:32.681Z,34.90
2019-01-31T02:11:22.363Z,39.70
2019-01-31T02:16:51.688Z,36.10
2019-01-31T02:22:25.121Z,32.17
2019-01-31T02:28:16.450Z,37.70
2019-01-31T02:34:07.183Z,34.57
2019-01-31T02:39:43.075Z,32.00
2019-01-31T02:45:06.654Z,33.67
2019-01-31T02:51:08.123Z,24.83
2019-01-31T02:57:00.189Z,33.40
2019-01-31T03:02:26.950Z,32.70
2019-01-31T03:08:13.050Z,36.93
2019-01-31T03:13:54.542Z,40.70
2019-01-31T03:19:49.881Z,34.47
2019-01-31T03:25:35.649Z,39.00
2019-01-31T03:31:28.560Z,44.20
2019-01-31T03:37:15.750Z,39.97
2019-01-31T03:43:05.386Z,42.00
2019-01-31T03:48:50.176Z,43.87
2019-01-31T03:54:57.134Z,38.90
2019-01-31T04:00:26.712Z,34.83
2019-01-31T04:06:01.498Z,37.60
2019-01-31T04:11:08.675Z,43.70
2019-01-31T04:16:13.729Z,38.17
2019-01-31T04:21:27.899Z,42.67
2019-01-31T04:26:33.651Z,39.30
2019-01-31T04:31:38.924Z,37.10
2019-01-31T04:36:44.127Z,38.90
2019-01-31T04:41:49.436Z,38.00
2019-01-31T04:46:54.502Z,37.00
2019-01-31T04:52:00.689Z,44.00
2019-01-31T04:57:06.644Z,39.87
2019-01-31T05:02:17.822Z,39.87
2019-01-31T05:07:23.238Z,51.07
2019-01-31T05:12:28.657Z,40.50
2019-01-31T05:17:34.342Z,39.43
2019-01-31T05:22:39.583Z,45.53
2019-01-31T05:27:44.735Z,49.30
2019-01-31T05:32:50.276Z,45.70
2019-01-31T05:37:55.424Z,45.47
2019-01-31T05:43:00.966Z,41.50
2019-01-31T05:48:06.077Z,44.63
2019-01-31T05:53:12.030Z,41.10
2019-01-31T05:58:17.114Z,39.60
2019-01-31T06:03:22.480Z,43.40
2019-01-31T06:08:27.929Z,46.70
2019-01-31T06:13:33.113Z,41.40
2019-01-31T06:18:39.318Z,44.87
2019-01-31T06:23:44.631Z,42.67
2019-01-31T06:28:49.997Z,42.67
2019-01-31T06:33:55.514Z,44.33
2019-01-31T06:39:24.878Z,40.20
2019-01-31T06:44:30.254Z,39.03
2019-01-31T06:49:35.382Z,37.60
2019-01-31T06:54:40.966Z,41.10
2019-01-31T06:59:46.562Z,42.80
2019-01-31T07:04:52.446Z,43.70
2019-01-31T07:09:57.597Z,43.67
2019-01-31T07:15:03.274Z,38.97
2019-01-31T07:20:10.562Z,40.57
2019-01-31T07:25:18.380Z,40.23
2019-01-31T07:30:26.704Z,35.00
2019-01-31T07:35:30.861Z,35.33
2019-01-31T07:40:36.124Z,40.33
2019-01-31T07:45:41.416Z,37.43
2019-01-31T07:50:46.926Z,35.73
2019-01-31T07:55:51.971Z,35.63
2019-01-31T08:00:57.238Z,37.20
2019-01-31T08:06:02.276Z,31.10
2019-01-31T08:11:07.872Z,27.67
2019-01-31T08:16:13.003Z,41.37
2019-01-31T08:21:18.297Z,33.03
2019-01-31T08:26:23.467Z,25.83
2019-01-31T08:31:28.622Z,24.80
2019-01-31T08:36:34.486Z,26.17
2019-01-31T08:41:39.628Z,21.30
2019-01-31T08:46:44.742Z,29.57
2019-01-31T08:51:49.787Z,27.53
2019-01-31T08:56:55.262Z,24.40
2019-01-31T09:02:06.742Z,22.30
2019-01-31T09:07:11.851Z,26.97
2019-01-31T09:12:17.050Z,18.67
2019-01-31T09:17:22.634Z,18.47
2019-01-31T09:28:59.232Z,27.37
2019-01-31T09:34:39.448Z,27.67
2019-01-31T09:40:18.980Z,19.93
2019-01-31T09:45:49.622Z,26.90
2019-01-31T09:51:40.450Z,28.03
2019-01-31T09:57:21.753Z,19.67
2019-01-31T10:03:07.120Z,16.33
2019-01-31T10:09:05.608Z,15.63
2019-01-31T10:14:41.606Z,20.50
2019-01-31T10:20:06.776Z,20.00
2019-01-31T10:25:56.310Z,15.93
2019-01-31T10:31:28.214Z,16.33
2019-01-31T10:37:15.709Z,17.87
2019-01-31T10:43:00.140Z,17.33
2019-01-31T10:48:25.072Z,14.33
2019-01-31T10:54:20.725Z,15.43
2019-01-31T11:00:23.440Z,13.97
2019-01-31T11:05:58.981Z,20.33
2019-01-31T11:11:33.026Z,14.33
2019-01-31T11:17:14.139Z,16.97
2019-01-31T11:23:03.169Z,22.10
2019-01-31T11:28:18.364Z,20.77
2019-01-31T11:34:09.956Z,19.93
2019-01-31T11:39:55.036Z,23.03
2019-01-31T11:45:56.497Z,22.47
2019-01-31T11:51:38.498Z,17.40
2019-01-31T11:57:40.149Z,19.80
2019-01-31T12:02:54.694Z,17.23
2019-01-31T12:07:51.980Z,15.93
2019-01-31T12:12:57.504Z,15.93
2019-01-31T12:18:04.465Z,15.48
2019-01-31T12:23:10.715Z,14.33
2019-01-31T12:28:17.174Z,13.03
2019-01-31T12:33:22.428Z,15.43
2019-01-31T12:38:36.479Z,13.93
2019-01-31T12:43:35.532Z,14.47
2019-01-31T12:48:40.730Z,13.28
2019-01-31T12:53:46.082Z,13.27
2019-01-31T12:58:51.423Z,15.97
2019-01-31T13:03:58.161Z,15.83
2019-01-31T13:09:04.773Z,17.77
2019-01-31T13:14:11.550Z,15.57
2019-01-31T13:19:48.581Z,14.47
2019-01-31T13:30:54.853Z,16.93
2019-01-31T13:36:20.178Z,16.60
2019-01-31T13:41:25.624Z,16.00
2019-01-31T13:46:32.773Z,19.47
2019-01-31T13:51:45.665Z,24.00
2019-01-31T13:57:28.069Z,18.30
2019-01-31T14:02:59.526Z,17.13
2019-01-31T14:08:06.266Z,15.27
2019-01-31T14:13:15.251Z,21.53
2019-01-31T14:18:20.840Z,22.47
2019-01-31T14:23:26.083Z,16.07
2019-01-31T14:28:32.364Z,20.03
2019-01-31T14:33:37.648Z,17.00
2019-01-31T14:38:43.175Z,23.47
2019-01-31T14:43:48.481Z,25.53
2019-01-31T14:48:56.206Z,24.67
2019-01-31T14:54:01.882Z,19.97
2019-01-31T14:59:07.582Z,21.10
2019-01-31T15:04:12.811Z,20.17
2019-01-31T15:09:18.071Z,17.73
2019-01-31T15:14:32.023Z,22.40
2019-01-31T15:19:33.130Z,22.90
2019-01-31T15:24:38.316Z,21.10
2019-01-31T15:29:44.751Z,18.83
2019-01-31T15:34:49.923Z,22.93
2019-01-31T15:39:55.331Z,21.90
2019-01-31T15:45:01.888Z,22.77
2019-01-31T15:50:08.764Z,25.87
2019-01-31T15:55:15.941Z,25.80
2019-01-31T16:00:32.951Z,25.17
2019-01-31T16:05:38.232Z,23.80
2019-01-31T16:10:43.728Z,22.03
2019-01-31T16:15:48.985Z,26.10
2019-01-31T16:20:59.264Z,22.17
2019-01-31T16:26:07.676Z,23.23
2019-01-31T16:31:13.090Z,23.73
2019-01-31T16:36:21.706Z,24.70
2019-01-31T16:41:27.984Z,22.30
2019-01-31T16:46:36.313Z,22.97
2019-01-31T16:51:40.808Z,24.87
2019-01-31T16:56:46.178Z,24.07
2019-01-31T17:01:51.504Z,29.43
2019-01-31T17:06:57.124Z,29.30
2019-01-31T17:12:02.330Z,25.83
2019-01-31T17:17:08.650Z,24.20
2019-01-31T17:22:19.513Z,22.93
2019-01-31T17:27:25.513Z,24.57
2019-01-31T17:32:31.780Z,26.13
2019-01-31T17:37:37.227Z,25.87
2019-01-31T17:42:42.983Z,24.63
2019-01-31T17:47:48.577Z,24.80
2019-01-31T17:52:53.865Z,27.90
2019-01-31T17:57:59.174Z,27.80
2019-01-31T18:03:04.578Z,26.63
2019-01-31T18:08:09.988Z,32.63
2019-01-31T18:13:15.945Z,34.43
2019-01-31T18:18:21.385Z,31.43
2019-01-31T18:23:27.194Z,32.00
2019-01-31T18:28:32.559Z,30.37
2019-01-31T18:33:37.961Z,26.27
2019-01-31T18:38:44.570Z,30.93
2019-01-31T18:43:50.338Z,33.37
2019-01-31T18:48:57.538Z,33.47
2019-01-31T18:54:03.052Z,30.83
2019-01-31T18:59:08.221Z,33.97
2019-01-31T19:04:13.887Z,36.27
2019-01-31T19:09:19.243Z,30.87
2019-01-31T19:14:26.051Z,33.57
2019-01-31T19:19:32.359Z,38.47
2019-01-31T19:24:38.214Z,32.33
2019-01-31T19:29:44.418Z,34.87
2019-01-31T19:34:50.018Z,34.40
2019-01-31T19:39:55.378Z,34.77
2019-01-31T19:45:01.672Z,30.50
2019-01-31T19:50:08.479Z,40.17
2019-01-31T19:55:13.832Z,35.83
2019-01-31T20:00:20.617Z,35.40
2019-01-31T20:05:27.140Z,32.53
2019-01-31T20:10:32.379Z,35.23
2019-01-31T20:15:37.526Z,29.67
2019-01-31T20:20:43.033Z,37.70
2019-01-31T20:25:48.550Z,43.10
2019-01-31T20:30:53.868Z,46.23
2019-01-31T20:35:59.450Z,39.53
2019-01-31T20:41:04.922Z,40.03
2019-01-31T20:46:10.177Z,44.87
2019-01-31T20:51:15.462Z,41.83
2019-01-31T20:56:20.839Z,43.33
2019-01-31T21:01:26.101Z,43.23
2019-01-31T21:06:41.091Z,50.93
2019-01-31T21:11:38.138Z,43.77
2019-01-31T21:16:52.599Z,45.03
2019-01-31T21:22:01.122Z,50.00
2019-01-31T21:27:11.570Z,43.00
2019-01-31T21:32:19.746Z,45.67
2019-01-31T21:37:33.814Z,48.47
2019-01-31T21:42:39.107Z,47.50
2019-01-31T21:47:44.325Z,48.33
2019-01-31T21:52:49.494Z,39.00
2019-01-31T21:57:54.607Z,41.17
2019-01-31T22:02:59.882Z,49.27
2019-01-31T22:08:05.182Z,52.70
2019-01-31T22:13:10.355Z,53.50
2019-01-31T22:18:17.894Z,50.37
2019-01-31T22:23:22.340Z,51.80
2019-01-31T22:28:27.587Z,56.33
2019-01-31T22:33:32.811Z,53.73
2019-01-31T22:38:38.051Z,51.73
2019-01-31T22:43:43.173Z,54.73
2019-01-31T22:48:48.586Z,55.73
2019-01-31T22:53:54.023Z,56.60
2019-01-31T22:58:59.181Z,55.57
2019-01-31T23:04:04.956Z,51.33
2019-01-31T23:09:12.667Z,45.90
2019-01-31T23:14:17.955Z,55.43
2019-01-31T23:19:23.299Z,50.33
2019-01-31T23:24:28.450Z,46.67
2019-01-31T23:29:33.663Z,47.37
2019-01-31T23:34:38.802Z,52.57
2019-01-31T23:39:49.009Z,43.37
2019-01-31T23:44:54.141Z,49.50
2019-01-31T23:49:59.217Z,46.33
2019-01-31T23:55:05.073Z,55.77
